createdAt,value
2018-10-21T00:01:08.049Z,23.33
2018-10-21T00:03:36.190Z,21.43
2018-10-21T00:06:04.296Z,20.40
2018-10-21T00:08:32.370Z,27.40
2018-10-21T00:11:00.414Z,19.90
2018-10-21T00:13:28.449Z,16.50
2018-10-21T00:15:56.504Z,25.10
2018-10-21T00:18:24.657Z,20.70
2018-10-21T00:20:52.628Z,21.30
2018-10-21T00:23:20.744Z,21.57
2018-10-21T00:25:48.893Z,20.27
2018-10-21T00:28:16.972Z,21.63
2018-10-21T00:30:44.966Z,21.03
2018-10-21T00:33:13.163Z,22.07
2018-10-21T00:35:41.141Z,23.47
2018-10-21T00:38:09.165Z,21.13
2018-10-21T00:40:37.203Z,29.13
2018-10-21T00:43:05.496Z,23.30
2018-10-21T00:45:33.695Z,26.37
2018-10-21T00:48:01.832Z,21.63
2018-10-21T00:50:29.898Z,24.53
2018-10-21T00:52:57.924Z,20.20
2018-10-21T00:55:26.234Z,26.30
2018-10-21T00:57:54.339Z,20.37
2018-10-21T01:00:22.431Z,24.60
2018-10-21T01:02:50.518Z,20.67
2018-10-21T01:05:18.560Z,27.10
2018-10-21T01:07:46.811Z,21.47
2018-10-21T01:10:14.874Z,21.67
2018-10-21T01:12:42.930Z,26.50
2018-10-21T01:15:12.169Z,26.37
2018-10-21T01:17:40.336Z,26.03
2018-10-21T01:20:10.724Z,24.73
2018-10-21T01:22:38.917Z,22.93
2018-10-21T01:25:07.954Z,21.37
2018-10-21T01:27:36.180Z,24.47
2018-10-21T01:30:05.221Z,23.03
2018-10-21T01:32:33.290Z,23.83
2018-10-21T01:35:01.371Z,22.53
2018-10-21T01:37:29.606Z,24.70
2018-10-21T01:41:01.116Z,22.70
2018-10-21T01:43:30.386Z,24.67
2018-10-21T01:45:58.825Z,23.00
2018-10-21T01:48:30.685Z,23.63
2018-10-21T01:50:58.763Z,22.03
2018-10-21T01:53:26.870Z,26.53
2018-10-21T01:55:55.034Z,21.23
2018-10-21T01:58:23.076Z,20.97
2018-10-21T02:00:51.234Z,26.20
2018-10-21T02:03:19.383Z,23.73
2018-10-21T02:05:47.875Z,21.23
2018-10-21T02:08:15.925Z,17.70
2018-10-21T02:10:43.994Z,18.77
2018-10-21T02:13:12.109Z,20.10
2018-10-21T02:15:40.133Z,24.03
2018-10-21T02:18:08.216Z,22.53
2018-10-21T02:20:36.356Z,24.00
2018-10-21T02:23:04.573Z,22.63
2018-10-21T02:25:32.810Z,21.10
2018-10-21T02:28:00.877Z,20.57
2018-10-21T02:30:30.124Z,23.50
2018-10-21T02:32:58.829Z,23.70
2018-10-21T02:35:26.929Z,22.67
2018-10-21T02:37:55.530Z,21.30
2018-10-21T02:41:40.972Z,22.87
2018-10-21T02:44:10.209Z,22.13
2018-10-21T02:46:39.046Z,22.90
2018-10-21T02:49:08.020Z,22.40
2018-10-21T02:51:36.269Z,20.93
2018-10-21T02:54:04.833Z,21.67
2018-10-21T02:56:32.927Z,23.33
2018-10-21T02:59:00.997Z,22.10
2018-10-21T03:01:29.235Z,25.27
2018-10-21T03:03:57.419Z,25.73
2018-10-21T03:06:25.759Z,24.60
2018-10-21T03:08:53.859Z,19.13
2018-10-21T03:11:22.035Z,22.30
2018-10-21T03:13:50.180Z,23.30
2018-10-21T03:16:18.443Z,20.47
2018-10-21T03:18:47.104Z,25.10
2018-10-21T03:21:15.901Z,23.10
2018-10-21T03:23:44.675Z,24.23
2018-10-21T03:26:13.107Z,28.63
2018-10-21T03:28:41.621Z,24.07
2018-10-21T03:31:10.468Z,25.17
2018-10-21T03:33:39.182Z,22.00
2018-10-21T03:36:07.606Z,23.80
2018-10-21T03:38:36.218Z,21.70
2018-10-21T03:41:04.968Z,25.20
2018-10-21T03:43:33.447Z,24.87
2018-10-21T03:46:02.120Z,32.20
2018-10-21T03:48:30.617Z,25.83
2018-10-21T03:50:59.291Z,30.30
2018-10-21T03:53:27.750Z,23.43
2018-10-21T03:55:56.485Z,22.23
2018-10-21T03:58:24.897Z,22.90
2018-10-21T04:00:53.211Z,24.70
2018-10-21T04:03:21.418Z,24.67
2018-10-21T04:05:49.589Z,27.87
2018-10-21T04:08:17.720Z,21.90
2018-10-21T04:10:45.741Z,24.57
2018-10-21T04:13:13.955Z,24.63
2018-10-21T04:15:42.491Z,27.50
2018-10-21T04:18:10.654Z,23.87
2018-10-21T04:20:38.948Z,27.07
2018-10-21T04:23:07.136Z,26.07
2018-10-21T04:25:36.701Z,25.83
2018-10-21T04:28:05.682Z,23.57
2018-10-21T04:30:36.251Z,22.27
2018-10-21T04:33:10.593Z,25.77
2018-10-21T04:35:39.345Z,24.70
2018-10-21T04:39:21.685Z,24.27
2018-10-21T04:41:50.356Z,22.73
2018-10-21T04:44:18.968Z,22.40
2018-10-21T04:46:47.821Z,22.83
2018-10-21T04:49:16.398Z,22.73
2018-10-21T04:51:45.071Z,27.47
2018-10-21T04:54:13.443Z,23.67
2018-10-21T04:56:42.112Z,23.60
2018-10-21T04:59:11.180Z,20.70
2018-10-21T05:01:39.940Z,25.23
2018-10-21T05:04:08.802Z,21.90
2018-10-21T05:06:37.163Z,22.77
2018-10-21T05:09:06.485Z,24.13
2018-10-21T05:11:35.199Z,23.93
2018-10-21T05:14:03.874Z,21.43
2018-10-21T05:16:32.353Z,25.23
2018-10-21T05:19:00.850Z,22.67
2018-10-21T05:21:29.618Z,25.50
2018-10-21T05:23:58.275Z,24.43
2018-10-21T05:26:26.811Z,21.57
2018-10-21T05:28:55.594Z,25.23
2018-10-21T05:31:24.297Z,17.53
2018-10-21T05:33:53.073Z,25.33
2018-10-21T05:36:21.602Z,24.53
2018-10-21T05:38:50.216Z,21.27
2018-10-21T05:41:19.435Z,28.47
2018-10-21T05:43:48.430Z,24.20
2018-10-21T05:46:53.435Z,27.30
2018-10-21T05:49:22.363Z,28.47
2018-10-21T05:51:51.728Z,30.17
2018-10-21T05:54:21.759Z,32.73
2018-10-21T05:56:51.191Z,35.10
2018-10-21T05:59:19.985Z,33.67
2018-10-21T06:01:49.457Z,41.33
2018-10-21T06:04:18.416Z,59.50
2018-10-21T06:06:47.022Z,36.07
2018-10-21T06:09:15.860Z,28.57
2018-10-21T06:11:44.732Z,37.77
2018-10-21T06:14:13.758Z,44.50
2018-10-21T06:17:52.275Z,42.27
2018-10-21T06:20:24.529Z,50.13
2018-10-21T06:22:53.772Z,29.90
2018-10-21T06:25:22.467Z,38.17
2018-10-21T06:27:51.083Z,37.03
2018-10-21T06:30:19.998Z,30.93
2018-10-21T06:32:49.050Z,23.77
2018-10-21T06:35:18.132Z,34.47
2018-10-21T06:37:47.233Z,59.93
2018-10-21T06:40:15.985Z,48.53
2018-10-21T06:42:44.919Z,45.13
2018-10-21T06:45:14.327Z,40.50
2018-10-21T06:47:43.112Z,60.43
2018-10-21T06:50:18.323Z,31.57
2018-10-21T06:52:47.416Z,34.87
2018-10-21T06:55:16.022Z,32.93
2018-10-21T06:57:45.395Z,30.87
2018-10-21T07:00:14.087Z,29.43
2018-10-21T07:02:42.728Z,30.93
2018-10-21T07:05:23.006Z,27.43
2018-10-21T07:07:51.930Z,29.43
2018-10-21T07:10:21.149Z,26.67
2018-10-21T07:12:50.362Z,27.87
2018-10-21T07:15:19.479Z,23.87
2018-10-21T07:17:48.348Z,23.97
2018-10-21T07:20:17.102Z,36.73
2018-10-21T07:22:45.864Z,31.93
2018-10-21T07:25:14.547Z,23.43
2018-10-21T07:27:43.824Z,30.00
2018-10-21T07:30:13.363Z,45.57
2018-10-21T07:32:42.982Z,28.40
2018-10-21T07:35:14.221Z,25.63
2018-10-21T07:37:43.526Z,24.30
2018-10-21T07:40:13.721Z,23.70
2018-10-21T07:42:42.450Z,45.77
2018-10-21T07:45:11.344Z,28.43
2018-10-21T07:47:40.308Z,26.57
2018-10-21T07:50:08.933Z,29.10
2018-10-21T07:52:37.504Z,26.27
2018-10-21T07:55:05.981Z,32.07
2018-10-21T07:57:34.837Z,25.03
2018-10-21T08:00:03.613Z,30.60
2018-10-21T08:02:32.531Z,20.47
2018-10-21T08:05:01.426Z,26.83
2018-10-21T08:07:41.160Z,23.00
2018-10-21T08:10:10.078Z,23.30
2018-10-21T08:12:38.637Z,26.63
2018-10-21T08:15:07.978Z,21.77
2018-10-21T08:17:36.788Z,20.73
2018-10-21T08:20:06.120Z,22.40
2018-10-21T08:22:34.824Z,27.53
2018-10-21T08:25:03.851Z,30.93
2018-10-21T08:27:32.678Z,24.37
2018-10-21T08:30:01.698Z,23.37
2018-10-21T08:32:31.028Z,27.00
2018-10-21T08:35:00.735Z,27.10
2018-10-21T08:37:29.582Z,25.43
2018-10-21T08:39:59.085Z,22.57
2018-10-21T08:42:28.090Z,26.73
2018-10-21T08:44:56.728Z,27.43
2018-10-21T08:47:26.724Z,27.87
2018-10-21T08:49:56.135Z,27.37
2018-10-21T08:52:25.061Z,28.73
2018-10-21T08:54:54.096Z,27.67
2018-10-21T08:57:23.502Z,26.03
2018-10-21T08:59:52.322Z,26.40
2018-10-21T09:02:21.090Z,23.93
2018-10-21T09:04:50.107Z,25.23
2018-10-21T09:07:19.184Z,28.87
2018-10-21T09:09:48.194Z,24.10
2018-10-21T09:12:16.896Z,36.17
2018-10-21T09:14:46.565Z,21.83
2018-10-21T09:17:15.750Z,24.10
2018-10-21T09:19:44.856Z,24.63
2018-10-21T09:22:14.324Z,21.73
2018-10-21T09:24:43.586Z,24.70
2018-10-21T09:27:13.348Z,29.43
2018-10-21T09:29:42.915Z,23.37
2018-10-21T09:32:11.982Z,25.57
2018-10-21T09:34:41.133Z,23.93
2018-10-21T09:37:10.531Z,25.93
2018-10-21T09:39:42.887Z,26.20
2018-10-21T09:42:11.959Z,25.90
2018-10-21T09:44:40.764Z,29.63
2018-10-21T09:47:09.445Z,26.53
2018-10-21T09:49:38.855Z,27.10
2018-10-21T09:52:07.903Z,33.17
2018-10-21T09:54:36.853Z,26.43
2018-10-21T09:57:06.044Z,28.90
2018-10-21T09:59:34.973Z,30.47
2018-10-21T10:02:09.085Z,26.30
2018-10-21T10:04:38.375Z,32.17
2018-10-21T10:07:07.496Z,43.50
2018-10-21T10:09:39.191Z,38.10
2018-10-21T10:12:08.993Z,32.80
2018-10-21T10:14:37.613Z,34.00
2018-10-21T10:17:06.293Z,28.17
2018-10-21T10:19:34.901Z,33.47
2018-10-21T10:22:03.532Z,32.97
2018-10-21T10:24:32.086Z,31.27
2018-10-21T10:27:00.902Z,31.13
2018-10-21T10:29:30.895Z,31.67
2018-10-21T10:32:00.117Z,31.97
2018-10-21T10:34:28.665Z,35.13
2018-10-21T10:36:57.664Z,26.27
2018-10-21T10:39:26.199Z,26.77
2018-10-21T10:41:54.872Z,28.80
2018-10-21T10:44:23.359Z,28.57
2018-10-21T10:46:51.925Z,30.53
2018-10-21T10:49:20.704Z,38.13
2018-10-21T10:51:49.347Z,75.13
2018-10-21T10:54:17.966Z,131.17
2018-10-21T10:56:46.058Z,84.90
2018-10-21T10:59:14.185Z,75.90
2018-10-21T11:01:42.716Z,91.60
2018-10-21T11:04:10.790Z,43.10
2018-10-21T11:06:39.295Z,36.73
2018-10-21T11:09:09.203Z,34.07
2018-10-21T11:11:37.442Z,32.53
2018-10-21T11:14:05.954Z,31.43
2018-10-21T11:16:34.248Z,29.80
2018-10-21T11:19:02.524Z,35.77
2018-10-21T11:21:30.739Z,31.03
2018-10-21T11:23:59.013Z,33.37
2018-10-21T11:26:27.227Z,33.17
2018-10-21T11:28:55.645Z,29.37
2018-10-21T11:31:24.046Z,28.20
2018-10-21T11:33:52.445Z,33.07
2018-10-21T11:36:20.964Z,27.90
2018-10-21T11:38:49.497Z,29.97
2018-10-21T11:41:17.591Z,31.83
2018-10-21T11:43:45.717Z,36.40
2018-10-21T11:46:14.514Z,31.63
2018-10-21T11:48:42.854Z,30.67
2018-10-21T11:51:12.051Z,26.87
2018-10-21T11:53:40.375Z,28.97
2018-10-21T11:56:08.668Z,31.23
2018-10-21T11:58:37.348Z,26.03
2018-10-21T12:01:06.192Z,26.03
2018-10-21T12:03:34.836Z,24.30
2018-10-21T12:06:03.473Z,23.67
2018-10-21T12:08:33.830Z,24.97
2018-10-21T12:11:04.894Z,25.23
2018-10-21T12:13:36.960Z,26.43
2018-10-21T12:16:05.974Z,28.30
2018-10-21T12:18:34.468Z,20.97
2018-10-21T12:21:03.794Z,21.07
2018-10-21T12:23:32.936Z,19.43
2018-10-21T12:26:02.158Z,20.87
2018-10-21T12:28:31.449Z,16.73
2018-10-21T12:31:00.868Z,17.03
2018-10-21T12:33:31.866Z,18.00
2018-10-21T12:36:00.633Z,20.63
2018-10-21T12:38:29.052Z,18.57
2018-10-21T12:40:57.468Z,18.07
2018-10-21T12:43:26.042Z,15.73
2018-10-21T12:45:54.570Z,15.13
2018-10-21T12:48:23.106Z,17.53
2018-10-21T12:50:51.820Z,14.20
2018-10-21T12:53:20.324Z,18.37
2018-10-21T12:55:50.313Z,15.57
2018-10-21T12:58:19.265Z,17.43
2018-10-21T13:00:47.938Z,13.20
2018-10-21T13:03:16.612Z,16.90
2018-10-21T13:05:45.232Z,16.10
2018-10-21T13:08:13.711Z,14.03
2018-10-21T13:10:42.020Z,16.37
2018-10-21T13:13:10.864Z,18.87
2018-10-21T13:15:39.446Z,15.33
2018-10-21T13:18:09.631Z,21.87
2018-10-21T13:20:38.366Z,15.73
2018-10-21T13:23:06.980Z,20.87
2018-10-21T13:25:36.056Z,17.27
2018-10-21T13:28:05.143Z,19.03
2018-10-21T13:30:35.212Z,17.33
2018-10-21T13:33:03.820Z,22.37
2018-10-21T13:35:32.000Z,19.00
2018-10-21T13:38:00.320Z,21.60
2018-10-21T13:40:28.807Z,17.03
2018-10-21T13:42:57.131Z,19.03
2018-10-21T13:45:25.378Z,18.37
2018-10-21T13:47:53.691Z,19.90
2018-10-21T13:50:21.898Z,18.33
2018-10-21T13:52:50.333Z,21.63
2018-10-21T13:55:18.798Z,19.43
2018-10-21T13:57:47.130Z,24.33
2018-10-21T14:00:15.577Z,19.93
2018-10-21T14:02:43.789Z,20.03
2018-10-21T14:05:12.120Z,19.63
2018-10-21T14:07:40.535Z,17.80
2018-10-21T14:10:09.244Z,18.83
2018-10-21T14:12:37.539Z,20.00
2018-10-21T14:15:06.281Z,20.40
2018-10-21T14:17:34.657Z,19.17
2018-10-21T14:20:03.070Z,22.70
2018-10-21T14:22:31.504Z,19.20
2018-10-21T14:25:00.218Z,24.83
2018-10-21T14:27:28.485Z,21.53
2018-10-21T14:29:57.140Z,22.57
2018-10-21T14:32:25.596Z,20.40
2018-10-21T14:34:53.923Z,22.83
2018-10-21T14:37:22.239Z,21.50
2018-10-21T14:39:50.765Z,23.63
2018-10-21T14:42:19.391Z,24.37
2018-10-21T14:44:47.754Z,27.93
2018-10-21T14:47:16.115Z,26.27
2018-10-21T14:49:44.804Z,26.20
2018-10-21T14:52:13.383Z,25.33
2018-10-21T14:54:42.139Z,25.00
2018-10-21T14:57:10.624Z,31.53
2018-10-21T14:59:39.773Z,28.07
2018-10-21T15:02:09.465Z,26.40
2018-10-21T15:04:38.850Z,26.50
2018-10-21T15:07:07.355Z,26.13
2018-10-21T15:09:35.738Z,29.53
2018-10-21T15:12:04.339Z,25.73
2018-10-21T15:14:33.114Z,23.43
2018-10-21T15:17:02.566Z,23.63
2018-10-21T15:19:31.522Z,25.10
2018-10-21T15:21:59.726Z,22.93
2018-10-21T15:24:28.035Z,25.53
2018-10-21T15:26:57.812Z,23.30
2018-10-21T15:29:26.281Z,27.83
2018-10-21T15:31:54.627Z,25.87
2018-10-21T15:34:22.855Z,32.17
2018-10-21T15:36:52.243Z,29.90
2018-10-21T15:39:22.601Z,24.30
2018-10-21T15:41:52.895Z,28.33
2018-10-21T15:44:23.413Z,26.97
2018-10-21T15:46:51.960Z,24.77
2018-10-21T15:49:20.194Z,27.73
2018-10-21T15:51:48.649Z,26.10
2018-10-21T15:54:16.908Z,28.40
2018-10-21T15:56:45.410Z,25.50
2018-10-21T15:59:14.404Z,25.77
2018-10-21T16:01:43.645Z,24.90
2018-10-21T16:04:11.958Z,24.97
2018-10-21T16:06:40.500Z,25.63
2018-10-21T16:09:12.350Z,26.17
2018-10-21T16:11:41.898Z,25.17
2018-10-21T16:14:11.645Z,26.30
2018-10-21T16:16:41.374Z,23.70
2018-10-21T16:19:10.443Z,24.83
2018-10-21T16:21:39.014Z,25.00
2018-10-21T16:24:07.213Z,24.00
2018-10-21T16:26:35.543Z,22.40
2018-10-21T16:29:03.845Z,24.07
2018-10-21T16:31:32.032Z,25.40
2018-10-21T16:34:00.290Z,21.00
2018-10-21T16:36:28.364Z,22.73
2018-10-21T16:38:56.770Z,23.23
2018-10-21T16:41:27.276Z,24.80
2018-10-21T16:43:55.403Z,23.67
2018-10-21T16:46:23.821Z,25.13
2018-10-21T16:48:52.049Z,20.03
2018-10-21T16:51:20.361Z,25.03
2018-10-21T16:53:48.768Z,24.23
2018-10-21T16:56:16.991Z,24.53
2018-10-21T16:58:45.262Z,26.97
2018-10-21T17:01:13.796Z,19.87
2018-10-21T17:03:43.227Z,23.97
2018-10-21T17:06:11.536Z,20.83
2018-10-21T17:08:39.913Z,23.83
2018-10-21T17:11:09.257Z,25.73
2018-10-21T17:13:37.666Z,22.80
2018-10-21T17:16:08.673Z,20.83
2018-10-21T17:18:37.090Z,20.23
2018-10-21T17:21:07.372Z,24.47
2018-10-21T17:23:36.101Z,22.53
2018-10-21T17:26:04.604Z,21.93
2018-10-21T17:28:32.982Z,24.93
2018-10-21T17:31:01.937Z,17.60
2018-10-21T17:33:30.667Z,23.43
2018-10-21T17:35:58.956Z,21.63
2018-10-21T17:38:27.226Z,20.40
2018-10-21T17:40:55.768Z,20.43
2018-10-21T17:43:24.400Z,26.03
2018-10-21T17:45:52.681Z,21.17
2018-10-21T17:48:20.924Z,18.97
2018-10-21T17:50:49.047Z,20.03
2018-10-21T17:53:17.574Z,22.20
2018-10-21T17:55:46.492Z,19.63
2018-10-21T17:58:15.019Z,19.33
2018-10-21T18:00:43.424Z,19.53
2018-10-21T18:03:11.623Z,19.00
2018-10-21T18:05:39.864Z,22.67
2018-10-21T18:08:08.245Z,20.03
2018-10-21T18:10:36.778Z,22.53
2018-10-21T18:13:05.271Z,16.70
2018-10-21T18:15:33.536Z,18.63
2018-10-21T18:18:01.710Z,22.33
2018-10-21T18:20:30.119Z,18.23
2018-10-21T18:22:58.521Z,21.73
2018-10-21T18:25:26.733Z,24.00
2018-10-21T18:27:55.157Z,21.00
2018-10-21T18:30:23.387Z,24.07
2018-10-21T18:32:51.735Z,21.27
2018-10-21T18:35:20.045Z,20.77
2018-10-21T18:37:48.532Z,24.53
2018-10-21T18:40:17.317Z,18.23
2018-10-21T18:42:45.582Z,20.87
2018-10-21T18:45:14.769Z,24.80
2018-10-21T18:47:43.573Z,21.13
2018-10-21T18:50:13.202Z,18.97
2018-10-21T18:52:41.868Z,17.83
2018-10-21T18:55:12.567Z,22.87
2018-10-21T18:57:43.569Z,21.73
2018-10-21T19:00:15.108Z,21.40
2018-10-21T19:02:43.590Z,19.93
2018-10-21T19:05:12.351Z,19.20
2018-10-21T19:07:40.400Z,21.40
2018-10-21T19:10:12.424Z,24.80
2018-10-21T19:12:42.474Z,22.77
2018-10-21T19:15:13.160Z,19.63
2018-10-21T19:17:41.690Z,22.10
2018-10-21T19:20:12.443Z,19.20
2018-10-21T19:22:40.917Z,17.77
2018-10-21T19:25:10.751Z,19.77
2018-10-21T19:27:39.283Z,19.70
2018-10-21T19:30:08.467Z,20.37
2018-10-21T19:32:36.954Z,20.37
2018-10-21T19:35:05.985Z,17.77
2018-10-21T19:37:34.718Z,19.60
2018-10-21T19:40:05.011Z,18.83
2018-10-21T19:42:33.790Z,18.03
2018-10-21T19:45:02.267Z,20.03
2018-10-21T19:47:31.118Z,16.20
2018-10-21T19:49:59.807Z,17.17
2018-10-21T19:52:28.252Z,18.50
2018-10-21T19:54:57.756Z,22.43
2018-10-21T19:57:27.132Z,21.87
2018-10-21T19:59:56.439Z,23.00
2018-10-21T20:02:25.047Z,19.47
2018-10-21T20:04:53.608Z,20.33
2018-10-21T20:07:22.171Z,21.47
2018-10-21T20:09:50.781Z,20.07
2018-10-21T20:12:19.285Z,18.97
2018-10-21T20:14:47.711Z,20.93
2018-10-21T20:17:16.288Z,21.23
2018-10-21T20:19:45.066Z,18.70
2018-10-21T20:22:14.110Z,21.33
2018-10-21T20:24:42.870Z,22.43
2018-10-21T20:27:11.406Z,25.07
2018-10-21T20:29:40.056Z,21.77
2018-10-21T20:32:08.774Z,22.47
2018-10-21T20:34:37.381Z,24.30
2018-10-21T20:37:06.093Z,18.17
2018-10-21T20:39:34.670Z,19.90
2018-10-21T20:42:03.280Z,19.87
2018-10-21T20:44:31.839Z,19.27
2018-10-21T20:47:00.231Z,19.70
2018-10-21T20:49:28.902Z,19.60
2018-10-21T20:51:57.447Z,18.60
2018-10-21T20:54:30.156Z,21.80
2018-10-21T20:57:01.338Z,21.23
2018-10-21T20:59:29.874Z,16.67
2018-10-21T21:01:58.390Z,20.23
2018-10-21T21:04:27.003Z,21.00
2018-10-21T21:06:55.610Z,18.80
2018-10-21T21:09:24.911Z,22.40
2018-10-21T21:11:53.941Z,19.17
2018-10-21T21:14:22.558Z,23.67
2018-10-21T21:16:50.999Z,25.50
2018-10-21T21:19:19.617Z,23.57
2018-10-21T21:21:48.137Z,18.67
2018-10-21T21:24:17.045Z,20.73
2018-10-21T21:26:45.775Z,24.10
2018-10-21T21:29:14.303Z,21.77
2018-10-21T21:31:46.190Z,22.03
2018-10-21T21:34:15.671Z,19.83
2018-10-21T21:36:44.311Z,20.27
2018-10-21T21:39:13.978Z,21.83
2018-10-21T21:41:43.583Z,19.50
2018-10-21T21:44:12.082Z,20.00
2018-10-21T21:46:41.118Z,24.63
2018-10-21T21:49:11.505Z,18.40
2018-10-21T21:51:39.976Z,22.53
2018-10-21T21:54:10.320Z,21.33
2018-10-21T21:56:38.933Z,25.30
2018-10-21T21:59:08.367Z,21.53
2018-10-21T22:01:36.765Z,26.57
2018-10-21T22:04:05.455Z,22.63
2018-10-21T22:06:33.729Z,23.13
2018-10-21T22:09:02.111Z,20.93
2018-10-21T22:11:30.760Z,28.83
2018-10-21T22:13:59.752Z,24.33
2018-10-21T22:16:28.326Z,21.83
2018-10-21T22:18:56.616Z,22.60
2018-10-21T22:21:25.275Z,25.93
2018-10-21T22:23:53.919Z,28.07
2018-10-21T22:26:22.206Z,23.90
2018-10-21T22:28:50.728Z,27.20
2018-10-21T22:31:19.381Z,23.33
2018-10-21T22:33:47.787Z,22.53
2018-10-21T22:36:16.415Z,23.63
2018-10-21T22:38:44.909Z,22.70
2018-10-21T22:41:13.349Z,23.83
2018-10-21T22:43:41.964Z,24.80
2018-10-21T22:46:10.551Z,25.03
2018-10-21T22:48:38.687Z,25.63
2018-10-21T22:51:07.424Z,23.23
2018-10-21T22:53:35.684Z,27.93
2018-10-21T22:56:04.223Z,22.57
2018-10-21T22:58:32.813Z,24.33
2018-10-21T23:01:01.202Z,20.53
2018-10-21T23:03:29.685Z,25.07
2018-10-21T23:05:58.355Z,23.70
2018-10-21T23:08:26.661Z,23.03
2018-10-21T23:10:55.108Z,28.33
2018-10-21T23:13:23.698Z,25.73
2018-10-21T23:15:52.193Z,26.43
2018-10-21T23:18:20.795Z,23.83
2018-10-21T23:20:49.133Z,25.87
2018-10-21T23:23:17.739Z,25.03
2018-10-21T23:25:46.376Z,24.97
2018-10-21T23:28:15.114Z,24.20
2018-10-21T23:30:43.594Z,23.83
2018-10-21T23:33:12.063Z,23.00
2018-10-21T23:35:40.546Z,25.90
2018-10-21T23:38:09.010Z,26.93
2018-10-21T23:40:37.486Z,22.83
2018-10-21T23:43:05.897Z,27.93
2018-10-21T23:45:34.495Z,24.13
2018-10-21T23:48:03.071Z,25.37
2018-10-21T23:50:31.434Z,24.63
2018-10-21T23:53:00.081Z,24.00
2018-10-21T23:55:28.291Z,24.00
2018-10-21T23:57:56.810Z,24.57
